Time;durP1;ratioP1;P1;durP2;ratioP2;P2;SDS_P1;SDS_P2;PMS_P1;PMS_P2;Temp;Humidity;BMP_temperature;BMP_pressure;BME280_temperature;BME280_humidity;BME280_pressure;Samples;Min_cycle;Max_cycle;Signal;HPM_P1;HPM_P2
2021/07/19 00:01:31;;;;;;;;;;;16.60;99.90;;;;;;4919447;29;20026;-73
2021/07/19 00:03:59;;;;;;;;;;;16.60;99.90;;;;;;4918538;29;19965;-74
2021/07/19 00:06:31;;;;;;;;;;;16.60;99.90;;;;;;4918834;29;20009;-74
2021/07/19 00:09:03;;;;;;;;;;;16.60;99.90;;;;;;4903637;29;20409;-73
2021/07/19 00:11:36;;;;;;;;;;;16.50;99.90;;;;;;4918695;29;19977;-74
2021/07/19 00:14:03;;;;;;;;;;;16.50;99.90;;;;;;4918448;29;19970;-74
2021/07/19 00:16:35;;;;;;;;;;;16.40;99.90;;;;;;4918256;29;20037;-75
2021/07/19 00:19:02;;;;;;;;;;;16.40;99.90;;;;;;4902752;29;19962;-74
2021/07/19 00:21:29;;;;;;;;;;;16.40;99.90;;;;;;4918205;29;20013;-74
2021/07/19 00:23:55;;;;;;;;;;;16.40;99.90;;;;;;4918259;29;20038;-75
2021/07/19 00:26:22;;;;;;;;;;;16.40;99.90;;;;;;4918336;29;20009;-74
2021/07/19 00:28:50;;;;;;;;;;;16.40;99.90;;;;;;4935295;29;19927;-74
2021/07/19 00:31:22;;;;;;;;;;;16.40;99.90;;;;;;4934739;29;20349;-74
2021/07/19 00:33:54;;;;;;;;;;;16.40;99.90;;;;;;4918986;29;20312;-74
2021/07/19 00:36:20;;;;;;;;;;;16.40;99.90;;;;;;4902675;29;19966;-74
2021/07/19 00:38:47;;;;;;;;;;;16.40;99.90;;;;;;4902710;29;20465;-74
2021/07/19 00:41:20;;;;;;;;;;;16.40;99.90;;;;;;4917761;29;19948;-74
2021/07/19 00:43:46;;;;;;;;;;;16.40;99.90;;;;;;4934968;29;19966;-74
2021/07/19 00:46:18;;;;;;;;;;;16.40;99.90;;;;;;4918194;29;20381;-74
2021/07/19 00:48:46;;;;;;;;;;;16.40;99.90;;;;;;4918220;29;20017;-74
2021/07/19 00:51:12;;;;;;;;;;;16.40;99.90;;;;;;4934844;29;19927;-73
2021/07/19 00:53:46;;;;;;;;;;;16.40;99.90;;;;;;4918161;29;19927;-74
2021/07/19 00:56:13;;;;;;;;;;;16.30;99.90;;;;;;4902391;29;19933;-74
2021/07/19 00:58:47;;;;;;;;;;;16.30;99.90;;;;;;4935014;29;20021;-74
2021/07/19 01:01:14;;;;;;;;;;;16.30;99.90;;;;;;4901270;29;20122;-74
2021/07/19 01:03:48;;;;;;;;;;;16.20;99.90;;;;;;4934175;29;20404;-74
2021/07/19 01:06:20;;;;;;;;;;;16.20;99.90;;;;;;4917068;29;19973;-74
2021/07/19 01:08:55;;;;;;;;;;;16.20;99.90;;;;;;4934672;29;20021;-74
2021/07/19 01:11:22;;;;;;;;;;;16.20;99.90;;;;;;4917408;29;19927;-74
2021/07/19 01:13:54;;;;;;;;;;;16.20;99.90;;;;;;4917684;29;19990;-74
2021/07/19 01:16:26;;;;;;;;;;;16.20;99.90;;;;;;4917514;29;20368;-74
2021/07/19 01:18:58;;;;;;;;;;;16.20;99.90;;;;;;4934200;29;20006;-74
2021/07/19 01:21:47;;;;;;;;;;;16.10;99.90;;;;;;4901954;29;19954;-74
2021/07/19 01:24:24;;;;;;;;;;;16.10;99.90;;;;;;4916931;29;19927;-74
2021/07/19 01:27:05;;;;;;;;;;;16.10;99.90;;;;;;4917326;29;19927;-74
2021/07/19 01:29:38;;;;;;;;;;;16.10;99.90;;;;;;4916358;29;20381;-74
2021/07/19 01:32:13;;;;;;;;;;;16.00;99.90;;;;;;4934626;29;19966;-74
2021/07/19 01:34:46;;;;;;;;;;;16.00;99.90;;;;;;4917341;29;19993;-74
2021/07/19 01:37:19;;;;;;;;;;;15.90;99.90;;;;;;4918471;29;19926;-74
2021/07/19 01:40:05;;;;;;;;;;;15.90;99.90;;;;;;4917116;29;19928;-74
2021/07/19 01:42:31;;;;;;;;;;;15.90;99.90;;;;;;4917016;29;19962;-74
2021/07/19 01:45:04;;;;;;;;;;;15.90;99.90;;;;;;4917366;29;19931;-74
2021/07/19 01:47:32;;;;;;;;;;;15.90;99.90;;;;;;4917374;29;20385;-74
2021/07/19 01:50:07;;;;;;;;;;;15.80;99.90;;;;;;4917355;29;19978;-74
2021/07/19 01:52:58;;;;;;;;;;;15.90;99.90;;;;;;4934524;29;19933;-74
2021/07/19 01:55:26;;;;;;;;;;;15.90;99.90;;;;;;4917399;29;19949;-74
2021/07/19 01:57:54;;;;;;;;;;;15.90;99.90;;;;;;4917338;29;19927;-74
2021/07/19 02:00:23;;;;;;;;;;;15.90;99.90;;;;;;4917246;29;19939;-74
2021/07/19 02:02:59;;;;;;;;;;;15.90;99.90;;;;;;4917035;29;20419;-74
2021/07/19 02:05:28;;;;;;;;;;;15.90;99.90;;;;;;4917126;29;19951;-74
2021/07/19 02:08:03;;;;;;;;;;;15.90;99.90;;;;;;4917714;29;19970;-74
2021/07/19 02:10:53;;;;;;;;;;;15.80;99.90;;;;;;4920759;29;19931;-74
2021/07/19 02:13:26;;;;;;;;;;;15.80;99.90;;;;;;4920331;29;19930;-74
2021/07/19 02:15:59;;;;;;;;;;;15.70;99.90;;;;;;4921630;29;19927;-74
2021/07/19 02:18:33;;;;;;;;;;;15.70;99.90;;;;;;4905672;29;20038;-74
2021/07/19 02:21:04;;;;;;;;;;;15.70;99.90;;;;;;4920192;29;19931;-74
2021/07/19 02:23:35;;;;;;;;;;;15.60;99.90;;;;;;4920555;29;19930;-74
2021/07/19 02:26:28;;;;;;;;;;;15.60;99.90;;;;;;4936962;29;19926;-74
2021/07/19 02:29:00;;;;;;;;;;;15.60;99.90;;;;;;4920317;29;19927;-74
2021/07/19 02:31:32;;;;;;;;;;;15.50;99.90;;;;;;4920008;29;19926;-74
2021/07/19 02:34:00;;;;;;;;;;;15.50;99.90;;;;;;4904700;29;20017;-74
2021/07/19 02:36:28;;;;;;;;;;;15.50;99.90;;;;;;4920314;29;19943;-74
2021/07/19 02:39:00;;;;;;;;;;;15.50;99.90;;;;;;4921226;29;19974;-74
2021/07/19 02:41:28;;;;;;;;;;;15.40;99.90;;;;;;4919824;29;19926;-75
2021/07/19 02:44:06;;;;;;;;;;;15.50;99.90;;;;;;4920076;29;19927;-74
2021/07/19 02:47:04;;;;;;;;;;;15.40;99.90;;;;;;4921681;29;19927;-74
2021/07/19 02:49:31;;;;;;;;;;;15.40;99.90;;;;;;4904577;29;20017;-74
2021/07/19 02:52:01;;;;;;;;;;;15.30;99.90;;;;;;4919624;29;19933;-74
2021/07/19 02:54:34;;;;;;;;;;;15.30;99.90;;;;;;4919892;29;20412;-74
2021/07/19 02:57:10;;;;;;;;;;;15.30;99.90;;;;;;4919559;29;19927;-74
2021/07/19 02:59:40;;;;;;;;;;;15.30;99.90;;;;;;4904753;29;20390;-75
2021/07/19 03:02:12;;;;;;;;;;;15.30;99.90;;;;;;4919453;29;19926;-74
2021/07/19 03:04:44;;;;;;;;;;;15.30;99.90;;;;;;4919805;29;19934;-74
2021/07/19 03:07:18;;;;;;;;;;;15.30;99.90;;;;;;4919847;29;20394;-74
2021/07/19 03:09:53;;;;;;;;;;;15.30;99.90;;;;;;4919799;29;19927;-74
2021/07/19 03:12:26;;;;;;;;;;;15.30;99.90;;;;;;4904210;29;19966;-74
2021/07/19 03:14:58;;;;;;;;;;;15.30;99.90;;;;;;4904558;29;20394;-74
2021/07/19 03:17:26;;;;;;;;;;;15.30;99.90;;;;;;4919862;29;20337;-74
2021/07/19 03:19:58;;;;;;;;;;;15.20;99.90;;;;;;4918195;29;19926;-74
2021/07/19 03:22:38;;;;;;;;;;;15.20;99.90;;;;;;4919045;29;19949;-74
2021/07/19 03:25:29;;;;;;;;;;;15.10;99.90;;;;;;4936637;29;20039;-74
2021/07/19 03:27:55;;;;;;;;;;;15.10;99.90;;;;;;4919122;29;20358;-74
2021/07/19 03:30:28;;;;;;;;;;;15.10;99.90;;;;;;4904096;29;19927;-74
2021/07/19 03:32:57;;;;;;;;;;;15.10;99.90;;;;;;4903345;29;19931;-75
2021/07/19 03:35:31;;;;;;;;;;;15.10;99.90;;;;;;4919249;29;19938;-74
2021/07/19 03:38:02;;;;;;;;;;;15.00;99.90;;;;;;4903871;29;19927;-74
2021/07/19 03:40:54;;;;;;;;;;;15.00;99.90;;;;;;4935438;29;19927;-74
2021/07/19 03:43:23;;;;;;;;;;;15.00;99.90;;;;;;4918724;29;19981;-75
2021/07/19 03:45:56;;;;;;;;;;;14.90;99.90;;;;;;4904181;29;19927;-74
2021/07/19 03:48:29;;;;;;;;;;;14.90;99.90;;;;;;4918963;29;20029;-74
2021/07/19 03:50:56;;;;;;;;;;;14.90;99.90;;;;;;4918035;29;19933;-74
2021/07/19 03:53:28;;;;;;;;;;;14.90;99.90;;;;;;4903016;29;19937;-74
2021/07/19 03:56:00;;;;;;;;;;;14.90;99.90;;;;;;4903216;29;20297;-74
2021/07/19 03:58:36;;;;;;;;;;;14.90;99.90;;;;;;4935182;29;20049;-74
2021/07/19 04:01:04;;;;;;;;;;;14.90;99.90;;;;;;4902251;29;20065;-76
2021/07/19 04:03:50;;;;;;;;;;;14.90;99.90;;;;;;4903282;29;20370;-74
2021/07/19 04:06:31;;;;;;;;;;;14.90;99.90;;;;;;4918016;29;19927;-72
2021/07/19 04:08:59;;;;;;;;;;;15.00;99.90;;;;;;4917895;29;19927;-74
2021/07/19 04:11:35;;;;;;;;;;;15.00;99.90;;;;;;4924661;29;19931;-73
2021/07/19 04:14:13;;;;;;;;;;;15.00;99.90;;;;;;4917395;29;19927;-73
2021/07/19 04:16:47;;;;;;;;;;;15.00;99.90;;;;;;4914436;29;20386;-73
2021/07/19 04:19:21;;;;;;;;;;;15.00;99.90;;;;;;4913675;29;19985;-73
2021/07/19 04:21:54;;;;;;;;;;;15.00;99.90;;;;;;4916762;29;20009;-74
2021/07/19 04:24:40;;;;;;;;;;;15.00;99.90;;;;;;4916518;29;19927;-73
2021/07/19 04:27:13;;;;;;;;;;;14.90;99.90;;;;;;4917603;29;19970;-72
2021/07/19 04:29:47;;;;;;;;;;;15.00;99.90;;;;;;4901740;29;19934;-74
2021/07/19 04:32:21;;;;;;;;;;;15.00;99.90;;;;;;4916178;29;19926;-74
2021/07/19 04:34:51;;;;;;;;;;;15.10;99.90;;;;;;4917358;29;20044;-73
2021/07/19 04:37:19;;;;;;;;;;;15.10;99.90;;;;;;4917825;29;19949;-73
2021/07/19 04:39:52;;;;;;;;;;;15.10;99.90;;;;;;4902509;29;19974;-73
2021/07/19 04:42:24;;;;;;;;;;;15.10;99.90;;;;;;4901920;29;19933;-73
2021/07/19 04:44:57;;;;;;;;;;;15.10;99.90;;;;;;4917429;29;20009;-72
2021/07/19 04:47:29;;;;;;;;;;;15.10;99.90;;;;;;4917466;29;20405;-74
2021/07/19 04:50:01;;;;;;;;;;;15.20;99.90;;;;;;4917307;29;19978;-73
2021/07/19 04:52:35;;;;;;;;;;;15.20;99.90;;;;;;4916846;29;19927;-73
2021/07/19 04:55:02;;;;;;;;;;;15.20;99.90;;;;;;4914911;29;20309;-73
2021/07/19 04:57:31;;;;;;;;;;;15.20;99.90;;;;;;4917345;29;20243;-73
2021/07/19 05:00:04;;;;;;;;;;;15.30;99.90;;;;;;4934078;29;19962;-73
2021/07/19 05:02:36;;;;;;;;;;;15.30;99.90;;;;;;4933695;29;20481;-73
2021/07/19 05:05:11;;;;;;;;;;;15.40;99.90;;;;;;4917142;29;20594;-73
2021/07/19 05:07:44;;;;;;;;;;;15.40;99.90;;;;;;4914489;29;20394;-73
2021/07/19 05:10:16;;;;;;;;;;;15.40;99.90;;;;;;4932102;29;20477;-73
2021/07/19 05:12:51;;;;;;;;;;;15.50;99.90;;;;;;4903544;29;20037;-73
2021/07/19 05:15:19;;;;;;;;;;;15.50;99.90;;;;;;4933996;29;20402;-73
2021/07/19 05:17:46;;;;;;;;;;;15.50;99.90;;;;;;4933891;29;19931;-74
2021/07/19 05:20:19;;;;;;;;;;;15.60;99.90;;;;;;4934140;29;19933;-74
2021/07/19 05:22:46;;;;;;;;;;;15.70;99.90;;;;;;4894914;29;20358;-74
2021/07/19 05:25:24;;;;;;;;;;;15.70;99.90;;;;;;4932940;29;20025;-74
2021/07/19 05:27:58;;;;;;;;;;;15.80;99.90;;;;;;4917347;29;20026;-74
2021/07/19 05:30:31;;;;;;;;;;;15.80;99.90;;;;;;4900893;29;19931;-74
2021/07/19 05:33:03;;;;;;;;;;;15.80;99.90;;;;;;4901124;29;19927;-74
2021/07/19 05:35:35;;;;;;;;;;;15.90;99.90;;;;;;4901357;29;20456;-74
2021/07/19 05:38:02;;;;;;;;;;;15.90;99.90;;;;;;4916454;29;19977;-74
2021/07/19 05:40:36;;;;;;;;;;;16.00;99.90;;;;;;4914607;29;20026;-74
2021/07/19 05:43:03;;;;;;;;;;;16.00;99.90;;;;;;4916464;29;19977;-74
2021/07/19 05:45:36;;;;;;;;;;;16.10;99.90;;;;;;4919852;29;19969;-74
2021/07/19 05:48:08;;;;;;;;;;;16.10;99.90;;;;;;4920835;29;20022;-73
2021/07/19 05:50:40;;;;;;;;;;;16.20;99.90;;;;;;4904955;29;20377;-74
2021/07/19 05:53:12;;;;;;;;;;;16.30;99.90;;;;;;4936747;29;19927;-74
2021/07/19 05:55:43;;;;;;;;;;;16.30;99.90;;;;;;4938101;29;19927;-73
2021/07/19 05:58:15;;;;;;;;;;;16.30;99.90;;;;;;4919312;29;20054;-74
2021/07/19 06:00:47;;;;;;;;;;;16.40;99.90;;;;;;4936846;29;20005;-74
2021/07/19 06:03:20;;;;;;;;;;;16.50;99.90;;;;;;4904442;29;19931;-74
2021/07/19 06:05:47;;;;;;;;;;;16.50;99.90;;;;;;4905634;29;19978;-74
2021/07/19 06:08:14;;;;;;;;;;;16.60;99.90;;;;;;4916123;29;20562;-74
2021/07/19 06:10:40;;;;;;;;;;;16.60;99.90;;;;;;4903874;29;19974;-74
2021/07/19 06:13:07;;;;;;;;;;;16.70;99.90;;;;;;4902972;29;20456;-74
2021/07/19 06:15:39;;;;;;;;;;;16.70;99.90;;;;;;4918730;29;20453;-74
2021/07/19 06:18:10;;;;;;;;;;;16.70;99.90;;;;;;4918359;29;20025;-74
2021/07/19 06:20:38;;;;;;;;;;;16.80;99.90;;;;;;4919758;29;19973;-74
2021/07/19 06:23:10;;;;;;;;;;;16.80;99.90;;;;;;4919442;29;19927;-74
2021/07/19 06:25:37;;;;;;;;;;;16.90;99.90;;;;;;4919802;29;19970;-74
2021/07/19 06:28:10;;;;;;;;;;;16.90;99.90;;;;;;4936744;29;20014;-74
2021/07/19 06:30:36;;;;;;;;;;;17.00;99.90;;;;;;4904606;29;19970;-74
2021/07/19 06:33:08;;;;;;;;;;;17.10;99.90;;;;;;4904327;29;19931;-74
2021/07/19 06:35:40;;;;;;;;;;;17.20;99.90;;;;;;4919840;29;20293;-74
2021/07/19 06:38:06;;;;;;;;;;;17.20;99.90;;;;;;4919757;29;19927;-74
2021/07/19 06:40:38;;;;;;;;;;;17.30;99.90;;;;;;4904779;29;20354;-74
2021/07/19 06:43:10;;;;;;;;;;;17.40;99.90;;;;;;4919248;29;19934;-74
2021/07/19 06:45:46;;;;;;;;;;;17.50;99.90;;;;;;4920416;29;19965;-74
2021/07/19 06:48:17;;;;;;;;;;;17.60;99.90;;;;;;4919579;29;20461;-74
2021/07/19 06:50:46;;;;;;;;;;;17.60;99.90;;;;;;4919245;29;20249;-74
2021/07/19 06:53:12;;;;;;;;;;;17.70;99.90;;;;;;4918918;29;19985;-74
2021/07/19 06:55:39;;;;;;;;;;;17.80;99.90;;;;;;4919320;29;19926;-74
2021/07/19 06:58:06;;;;;;;;;;;17.90;99.90;;;;;;4919235;29;19962;-74
2021/07/19 07:00:33;;;;;;;;;;;18.00;99.90;;;;;;4903743;29;19969;-74
2021/07/19 07:03:00;;;;;;;;;;;18.10;99.90;;;;;;4903135;29;20021;-74
2021/07/19 07:05:32;;;;;;;;;;;18.10;99.90;;;;;;4904140;29;19967;-74
2021/07/19 07:08:03;;;;;;;;;;;18.20;99.90;;;;;;4904132;29;20029;-74
2021/07/19 07:10:30;;;;;;;;;;;18.30;99.90;;;;;;4903609;29;19934;-74
2021/07/19 07:12:57;;;;;;;;;;;18.40;99.90;;;;;;4918439;29;19983;-74
2021/07/19 07:15:28;;;;;;;;;;;18.50;99.90;;;;;;4904019;29;19974;-74
2021/07/19 07:17:55;;;;;;;;;;;18.60;99.90;;;;;;4935989;29;19974;-74
2021/07/19 07:20:27;;;;;;;;;;;18.70;99.90;;;;;;4919047;29;20021;-74
2021/07/19 07:22:53;;;;;;;;;;;18.80;99.90;;;;;;4902860;29;20366;-74
2021/07/19 07:25:20;;;;;;;;;;;18.90;99.90;;;;;;4918786;29;20413;-74
2021/07/19 07:27:47;;;;;;;;;;;19.00;99.90;;;;;;4935905;29;20568;-74
2021/07/19 07:30:20;;;;;;;;;;;19.10;99.90;;;;;;4903855;29;19927;-74
2021/07/19 07:32:52;;;;;;;;;;;19.20;99.90;;;;;;4918236;29;20476;-74
2021/07/19 07:35:24;;;;;;;;;;;19.30;99.90;;;;;;4935705;29;20022;-74
2021/07/19 07:37:56;;;;;;;;;;;19.40;99.90;;;;;;4918447;29;20473;-74
2021/07/19 07:40:22;;;;;;;;;;;19.50;99.90;;;;;;4902896;29;19930;-74
2021/07/19 07:42:49;;;;;;;;;;;19.60;99.90;;;;;;4918251;29;19934;-74
2021/07/19 07:45:21;;;;;;;;;;;19.70;99.90;;;;;;4903725;29;19927;-74
2021/07/19 07:47:47;;;;;;;;;;;19.80;99.90;;;;;;4918628;29;19965;-74
2021/07/19 07:50:19;;;;;;;;;;;19.90;99.90;;;;;;4903334;29;19954;-74
2021/07/19 07:52:45;;;;;;;;;;;20.00;99.90;;;;;;4918021;29;20374;-74
2021/07/19 07:55:17;;;;;;;;;;;20.10;99.90;;;;;;4918600;29;20279;-74
2021/07/19 07:57:49;;;;;;;;;;;20.20;99.90;;;;;;4918107;29;20029;-74
2021/07/19 08:00:21;;;;;;;;;;;20.30;99.90;;;;;;4919141;29;20017;-74
2021/07/19 08:02:52;;;;;;;;;;;20.40;99.90;;;;;;4918463;29;20025;-74
2021/07/19 08:05:19;;;;;;;;;;;20.50;99.90;;;;;;4917774;29;19973;-74
2021/07/19 08:07:50;;;;;;;;;;;20.60;99.90;;;;;;4902898;29;20030;-74
2021/07/19 08:10:22;;;;;;;;;;;20.70;99.90;;;;;;4935064;29;20021;-74
2021/07/19 08:12:54;;;;;;;;;;;20.80;99.90;;;;;;4917607;29;19962;-74
2021/07/19 08:15:25;;;;;;;;;;;20.80;99.90;;;;;;4902918;29;20022;-74
2021/07/19 08:17:52;;;;;;;;;;;20.90;99.90;;;;;;4902345;29;19966;-74
2021/07/19 08:20:24;;;;;;;;;;;21.00;99.90;;;;;;4902838;29;19978;-75
2021/07/19 08:22:55;;;;;;;;;;;21.10;99.90;;;;;;4918269;29;20021;-75
2021/07/19 08:25:27;;;;;;;;;;;21.20;99.90;;;;;;4917745;29;19933;-73
2021/07/19 08:27:59;;;;;;;;;;;21.30;99.90;;;;;;4917108;29;19927;-74
2021/07/19 08:30:31;;;;;;;;;;;21.40;99.90;;;;;;4902754;29;20460;-75
2021/07/19 08:33:03;;;;;;;;;;;21.60;99.90;;;;;;4918037;29;19977;-74
2021/07/19 08:35:30;;;;;;;;;;;21.70;99.90;;;;;;4917644;29;20298;-73
2021/07/19 08:38:02;;;;;;;;;;;21.70;99.90;;;;;;4917485;29;20412;-74
2021/07/19 08:40:29;;;;;;;;;;;21.80;99.90;;;;;;4901816;29;19939;-75
2021/07/19 08:42:56;;;;;;;;;;;21.90;99.90;;;;;;4916848;29;19958;-74
2021/07/19 08:45:27;;;;;;;;;;;22.00;99.90;;;;;;4917763;29;19933;-74
2021/07/19 08:47:59;;;;;;;;;;;22.10;99.90;;;;;;4902791;29;20025;-74
2021/07/19 08:50:32;;;;;;;;;;;22.20;99.90;;;;;;4902365;29;20035;-74
2021/07/19 08:52:58;;;;;;;;;;;22.40;99.90;;;;;;4916628;29;20021;-74
2021/07/19 08:55:25;;;;;;;;;;;22.50;99.90;;;;;;4917089;29;19990;-74
2021/07/19 08:57:52;;;;;;;;;;;22.50;99.90;;;;;;4901560;29;19927;-74
2021/07/19 09:00:20;;;;;;;;;;;22.60;99.90;;;;;;4901566;29;19966;-74
2021/07/19 09:02:47;;;;;;;;;;;22.70;99.90;;;;;;4916941;29;19931;-75
2021/07/19 09:05:19;;;;;;;;;;;22.80;99.90;;;;;;4901846;29;20021;-74
2021/07/19 09:07:46;;;;;;;;;;;22.90;99.90;;;;;;4917139;29;19962;-74
2021/07/19 09:10:13;;;;;;;;;;;23.00;99.90;;;;;;4934097;29;19975;-73
2021/07/19 09:12:47;;;;;;;;;;;23.00;99.90;;;;;;4902206;29;19930;-74
2021/07/19 09:15:27;;;;;;;;;;;23.20;99.90;;;;;;4913722;29;20014;-74
2021/07/19 09:17:55;;;;;;;;;;;23.20;99.90;;;;;;4914370;29;19927;-75
2021/07/19 09:20:28;;;;;;;;;;;23.40;99.90;;;;;;4905507;29;19941;-74
2021/07/19 09:22:54;;;;;;;;;;;23.40;99.90;;;;;;4904816;29;19982;-74
2021/07/19 09:25:21;;;;;;;;;;;23.50;99.90;;;;;;4921174;29;19930;-74
2021/07/19 09:28:01;;;;;;;;;;;23.60;99.90;;;;;;4906234;29;19977;-74
2021/07/19 09:30:29;;;;;;;;;;;23.70;99.90;;;;;;4920937;29;20353;-73
2021/07/19 09:33:03;;;;;;;;;;;23.70;99.90;;;;;;4933271;29;19933;-74
2021/07/19 09:35:35;;;;;;;;;;;23.70;99.90;;;;;;4905828;29;19927;-74
2021/07/19 09:38:08;;;;;;;;;;;23.90;99.90;;;;;;4937746;29;19958;-74
2021/07/19 09:40:36;;;;;;;;;;;24.00;99.90;;;;;;4905190;29;19927;-75
2021/07/19 09:43:12;;;;;;;;;;;24.10;99.90;;;;;;4919964;29;19930;-75
2021/07/19 09:45:45;;;;;;;;;;;24.30;99.90;;;;;;4920620;29;19933;-73
2021/07/19 09:48:20;;;;;;;;;;;24.30;99.90;;;;;;4905670;29;19927;-74
2021/07/19 09:50:53;;;;;;;;;;;24.30;99.90;;;;;;4920485;29;20460;-75
2021/07/19 09:53:35;;;;;;;;;;;24.40;99.90;;;;;;4921103;29;19930;-74
2021/07/19 09:56:09;;;;;;;;;;;24.50;99.90;;;;;;4920527;29;19931;-74
2021/07/19 09:58:35;;;;;;;;;;;24.60;99.90;;;;;;4920165;29;19970;-74
2021/07/19 10:01:07;;;;;;;;;;;24.70;99.90;;;;;;4886294;29;19938;-74
2021/07/19 10:03:34;;;;;;;;;;;24.60;99.90;;;;;;4901263;29;19962;-74
2021/07/19 10:06:06;;;;;;;;;;;24.70;99.90;;;;;;4901404;29;20025;-74
2021/07/19 10:08:33;;;;;;;;;;;24.80;99.90;;;;;;4901564;29;19998;-74
2021/07/19 10:11:13;;;;;;;;;;;24.90;99.90;;;;;;4901986;29;19927;-74
2021/07/19 10:13:47;;;;;;;;;;;25.10;99.90;;;;;;4918661;29;19927;-74
2021/07/19 10:16:19;;;;;;;;;;;25.20;99.90;;;;;;4901528;29;20009;-74
2021/07/19 10:18:47;;;;;;;;;;;25.30;99.90;;;;;;4901609;29;19927;-74
2021/07/19 10:21:14;;;;;;;;;;;25.30;99.90;;;;;;4901302;29;20004;-74
2021/07/19 10:23:47;;;;;;;;;;;25.30;99.90;;;;;;4901753;29;20092;-74
2021/07/19 10:26:15;;;;;;;;;;;25.40;99.90;;;;;;4901488;29;19979;-74
2021/07/19 10:28:47;;;;;;;;;;;25.50;99.90;;;;;;4901343;29;20034;-73
2021/07/19 10:31:20;;;;;;;;;;;25.50;99.90;;;;;;4886551;29;19970;-74
2021/07/19 10:33:48;;;;;;;;;;;25.60;99.90;;;;;;4901634;29;19927;-74
2021/07/19 10:36:44;;;;;;;;;;;25.60;99.90;;;;;;4901461;29;19927;-73
2021/07/19 10:39:30;;;;;;;;;;;25.50;99.90;;;;;;4876552;29;20056;-74
2021/07/19 10:42:00;;;;;;;;;;;25.50;99.90;;;;;;4900835;29;19995;-73
2021/07/19 10:44:31;;;;;;;;;;;25.50;99.90;;;;;;4918311;29;19963;-74
2021/07/19 10:47:08;;;;;;;;;;;25.50;99.90;;;;;;4908609;29;19973;-74
2021/07/19 10:49:43;;;;;;;;;;;25.60;99.90;;;;;;4915765;29;20032;-74
2021/07/19 10:52:18;;;;;;;;;;;25.80;99.90;;;;;;4901436;29;20013;-74
2021/07/19 10:54:49;;;;;;;;;;;25.80;99.90;;;;;;4901447;29;19931;-74
2021/07/19 10:57:19;;;;;;;;;;;25.80;99.90;;;;;;4900903;29;19927;-74
2021/07/19 11:00:00;;;;;;;;;;;25.90;99.90;;;;;;4901122;29;19970;-74
2021/07/19 11:02:30;;;;;;;;;;;25.90;99.90;;;;;;4902396;29;19959;-74
2021/07/19 11:04:57;;;;;;;;;;;26.00;99.90;;;;;;4924272;29;20383;-73
2021/07/19 11:07:25;;;;;;;;;;;26.00;99.90;;;;;;4950414;29;19970;-74
2021/07/19 11:09:52;;;;;;;;;;;26.00;99.90;;;;;;4906108;29;19958;-74
2021/07/19 11:12:24;;;;;;;;;;;26.10;99.90;;;;;;4903689;29;19926;-75
2021/07/19 11:14:55;;;;;;;;;;;26.20;99.90;;;;;;4919449;29;20029;-74
2021/07/19 11:17:28;;;;;;;;;;;26.30;99.90;;;;;;4904517;29;20449;-73
2021/07/19 11:20:09;;;;;;;;;;;26.20;99.90;;;;;;4936126;29;19926;-74
2021/07/19 11:22:41;;;;;;;;;;;26.10;99.90;;;;;;4918548;29;20370;-74
2021/07/19 11:25:10;;;;;;;;;;;26.00;99.90;;;;;;4903217;29;19937;-74
2021/07/19 11:27:37;;;;;;;;;;;26.10;99.90;;;;;;4915617;29;19958;-72
2021/07/19 11:30:08;;;;;;;;;;;26.30;99.90;;;;;;4936556;29;19927;-75
2021/07/19 11:32:40;;;;;;;;;;;26.50;99.90;;;;;;4902935;29;19927;-74
2021/07/19 11:35:16;;;;;;;;;;;26.60;99.90;;;;;;4914745;29;19933;-74
2021/07/19 11:37:44;;;;;;;;;;;26.80;99.90;;;;;;4935923;29;20018;-74
2021/07/19 11:40:35;;;;;;;;;;;26.90;99.90;;;;;;4919512;29;20037;-74
2021/07/19 11:43:30;;;;;;;;;;;27.00;99.90;;;;;;4917724;29;20025;-75
2021/07/19 11:46:02;;;;;;;;;;;27.00;99.90;;;;;;4903920;29;19937;-73
2021/07/19 11:48:29;;;;;;;;;;;26.90;99.90;;;;;;4919074;29;19926;-74
2021/07/19 11:50:56;;;;;;;;;;;26.80;99.90;;;;;;4918694;29;19962;-74
2021/07/19 11:53:23;;;;;;;;;;;26.90;99.90;;;;;;4918769;29;20313;-74
2021/07/19 11:55:50;;;;;;;;;;;26.90;99.90;;;;;;4911100;29;19970;-74
2021/07/19 11:58:17;;;;;;;;;;;27.00;99.90;;;;;;4919322;29;19962;-74
2021/07/19 12:00:49;;;;;;;;;;;27.20;99.90;;;;;;4921378;29;20018;-75
2021/07/19 12:03:16;;;;;;;;;;;27.40;99.90;;;;;;4918698;29;19927;-74
2021/07/19 12:05:52;;;;;;;;;;;27.60;99.90;;;;;;4898745;29;19927;-73
2021/07/19 12:08:34;;;;;;;;;;;27.70;99.90;;;;;;4884817;29;19989;-74
2021/07/19 12:11:07;;;;;;;;;;;27.70;99.90;;;;;;4927260;29;20021;-75
2021/07/19 12:13:40;;;;;;;;;;;27.50;99.90;;;;;;4936570;28;19926;-74
2021/07/19 12:16:13;;;;;;;;;;;27.40;99.90;;;;;;4924043;29;19934;-74
2021/07/19 12:18:48;;;;;;;;;;;27.50;99.90;;;;;;4919160;29;20380;-75
2021/07/19 12:21:23;;;;;;;;;;;27.60;99.90;;;;;;4917530;29;19961;-73
2021/07/19 12:23:56;;;;;;;;;;;27.80;99.90;;;;;;4903196;29;20014;-74
2021/07/19 12:26:30;;;;;;;;;;;27.90;99.90;;;;;;4919005;29;20042;-74
2021/07/19 12:29:05;;;;;;;;;;;28.10;99.90;;;;;;4935717;29;19927;-73
2021/07/19 12:31:38;;;;;;;;;;;27.90;99.90;;;;;;4935111;29;19973;-74
2021/07/19 12:34:11;;;;;;;;;;;28.10;99.90;;;;;;4919654;29;20018;-73
2021/07/19 12:36:47;;;;;;;;;;;28.10;99.10;;;;;;4935449;29;19974;-74
2021/07/19 12:39:21;;;;;;;;;;;28.10;99.90;;;;;;4914400;29;20501;-74
2021/07/19 12:41:53;;;;;;;;;;;28.30;99.90;;;;;;4934727;29;19981;-74
2021/07/19 12:44:26;;;;;;;;;;;28.40;98.30;;;;;;4918077;29;20441;-73
2021/07/19 12:46:58;;;;;;;;;;;28.50;97.50;;;;;;4917327;29;20402;-74
2021/07/19 12:49:30;;;;;;;;;;;28.50;97.30;;;;;;4909106;29;19966;-75
2021/07/19 12:52:12;;;;;;;;;;;28.70;96.90;;;;;;4933957;29;19926;-73
2021/07/19 12:54:39;;;;;;;;;;;28.70;93.80;;;;;;4916145;29;19973;-74
2021/07/19 12:57:11;;;;;;;;;;;28.60;93.00;;;;;;4916255;29;20461;-74
2021/07/19 12:59:46;;;;;;;;;;;28.70;95.90;;;;;;4910390;29;19934;-74
2021/07/19 13:02:19;;;;;;;;;;;28.60;94.40;;;;;;4918057;29;19933;-73
2021/07/19 13:04:52;;;;;;;;;;;28.60;92.80;;;;;;4933772;29;20010;-72
2021/07/19 13:07:29;;;;;;;;;;;28.60;92.90;;;;;;4934547;29;19978;-75
2021/07/19 13:10:03;;;;;;;;;;;28.80;93.40;;;;;;4934014;29;20043;-73
2021/07/19 13:12:35;;;;;;;;;;;28.90;92.60;;;;;;4916844;29;19927;-73
2021/07/19 13:15:07;;;;;;;;;;;28.90;93.00;;;;;;4917178;29;19926;-72
2021/07/19 13:17:39;;;;;;;;;;;29.00;93.20;;;;;;4926236;29;19962;-73
2021/07/19 13:20:11;;;;;;;;;;;29.20;93.50;;;;;;4912117;29;20030;-73
2021/07/19 13:22:45;;;;;;;;;;;29.30;91.80;;;;;;4932072;29;19935;-72
2021/07/19 13:25:24;;;;;;;;;;;29.40;92.70;;;;;;4900036;29;19927;-73
2021/07/19 13:27:57;;;;;;;;;;;29.70;93.50;;;;;;4917274;29;20030;-75
2021/07/19 13:30:28;;;;;;;;;;;29.50;93.20;;;;;;4916634;29;19961;-73
2021/07/19 13:33:00;;;;;;;;;;;29.10;91.10;;;;;;4933783;29;20029;-72
2021/07/19 13:35:36;;;;;;;;;;;29.10;91.90;;;;;;4917175;29;19978;-73
2021/07/19 13:38:08;;;;;;;;;;;29.10;89.60;;;;;;4917953;29;19927;-72
2021/07/19 13:40:44;;;;;;;;;;;29.00;89.30;;;;;;4934995;29;20070;-72
2021/07/19 13:43:18;;;;;;;;;;;28.90;91.90;;;;;;4941815;23;19926;-89
2021/07/19 13:45:45;;;;;;;;;;;28.90;91.00;;;;;;4940620;29;19926;-89
2021/07/19 13:48:16;;;;;;;;;;;29.00;84.60;;;;;;4940696;29;19927;-89
2021/07/19 13:50:49;;;;;;;;;;;29.40;87.50;;;;;;4922039;29;19931;-89
2021/07/19 13:53:16;;;;;;;;;;;29.60;82.80;;;;;;4920589;29;20318;-89
2021/07/19 13:55:51;;;;;;;;;;;29.90;84.90;;;;;;4926987;29;20284;-89
2021/07/19 13:58:18;;;;;;;;;;;30.00;79.80;;;;;;4922357;29;19937;-89
2021/07/19 14:00:45;;;;;;;;;;;30.00;79.00;;;;;;4922071;29;20394;-89
2021/07/19 14:03:17;;;;;;;;;;;29.90;78.10;;;;;;4923943;29;19933;-89
2021/07/19 14:05:44;;;;;;;;;;;30.10;75.70;;;;;;4936990;28;20383;-89
2021/07/19 14:08:11;;;;;;;;;;;30.20;76.00;;;;;;4933511;29;20407;-89
2021/07/19 14:10:38;;;;;;;;;;;30.50;79.90;;;;;;4942104;29;19934;-89
2021/07/19 14:13:04;;;;;;;;;;;30.50;73.70;;;;;;4927978;29;19927;-89
2021/07/19 14:15:31;;;;;;;;;;;30.30;72.30;;;;;;4943931;29;20026;-89
2021/07/19 14:17:58;;;;;;;;;;;30.20;75.70;;;;;;4945760;28;20028;-89
2021/07/19 14:20:24;;;;;;;;;;;30.30;75.40;;;;;;4951252;28;19997;-89
2021/07/19 14:22:51;;;;;;;;;;;30.60;76.30;;;;;;4946821;29;19998;-88
2021/07/19 14:25:18;;;;;;;;;;;30.40;75.20;;;;;;4914464;29;19977;-89
2021/07/19 14:27:45;;;;;;;;;;;30.10;73.20;;;;;;4957697;28;19990;-88
2021/07/19 14:30:13;;;;;;;;;;;29.80;71.10;;;;;;4937082;29;19926;-89
2021/07/19 14:32:40;;;;;;;;;;;29.90;73.20;;;;;;4942599;29;19926;-89
2021/07/19 14:35:11;;;;;;;;;;;30.00;70.60;;;;;;4933018;29;19926;-90
2021/07/19 14:37:38;;;;;;;;;;;29.90;72.10;;;;;;4926182;29;19930;-89
2021/07/19 14:40:06;;;;;;;;;;;29.80;75.00;;;;;;4941276;29;19966;-89
2021/07/19 14:42:33;;;;;;;;;;;29.50;78.30;;;;;;4925753;29;20306;-89